createdAt,value
2022-10-08T00:01:31.519Z,48.02
2022-10-08T00:04:00.275Z,47.80
2022-10-08T00:06:30.372Z,47.91
2022-10-08T00:09:02.416Z,47.73
2022-10-08T00:11:33.507Z,47.64
2022-10-08T00:14:02.961Z,47.74
2022-10-08T00:16:32.271Z,47.66
2022-10-08T00:19:02.389Z,47.57
2022-10-08T00:21:32.647Z,47.65
2022-10-08T00:24:03.156Z,47.72
2022-10-08T00:26:35.905Z,47.58
2022-10-08T00:29:08.155Z,47.56
2022-10-08T00:31:37.545Z,47.52
2022-10-08T00:34:09.071Z,47.64
2022-10-08T00:36:38.529Z,47.48
2022-10-08T00:39:08.871Z,47.62
2022-10-08T00:41:39.058Z,47.54
2022-10-08T00:44:40.861Z,47.51
2022-10-08T00:47:19.485Z,47.52
2022-10-08T00:49:49.272Z,47.53
2022-10-08T00:52:18.617Z,47.42
2022-10-08T00:54:50.290Z,47.40
2022-10-08T00:57:19.124Z,47.32
2022-10-08T00:59:47.361Z,47.54
2022-10-08T01:02:16.867Z,47.57
2022-10-08T01:04:45.458Z,47.46
2022-10-08T01:07:20.202Z,47.42
2022-10-08T01:09:56.954Z,47.28
2022-10-08T01:12:34.385Z,47.34
2022-10-08T01:15:09.469Z,47.14
2022-10-08T01:17:45.012Z,47.39
2022-10-08T01:20:39.476Z,47.20
2022-10-08T01:23:39.206Z,47.26
2022-10-08T01:26:23.858Z,47.31
2022-10-08T01:28:58.260Z,47.27
2022-10-08T01:31:31.295Z,47.30
2022-10-08T01:34:03.347Z,47.31
2022-10-08T01:36:38.789Z,47.09
2022-10-08T01:39:11.138Z,47.20
2022-10-08T01:41:42.095Z,47.14
2022-10-08T01:44:16.658Z,47.05
2022-10-08T01:46:48.074Z,47.17
2022-10-08T01:49:22.163Z,47.21
2022-10-08T01:51:55.120Z,47.01
2022-10-08T01:54:26.980Z,47.11
2022-10-08T01:56:57.039Z,47.16
2022-10-08T01:59:32.742Z,47.11
2022-10-08T02:02:07.977Z,47.11
2022-10-08T02:04:37.681Z,47.02
2022-10-08T02:07:09.321Z,47.10
2022-10-08T02:09:40.822Z,47.22
2022-10-08T02:12:10.123Z,47.03
2022-10-08T02:14:44.417Z,47.00
2022-10-08T02:17:27.589Z,47.03
2022-10-08T02:20:01.229Z,47.18
2022-10-08T02:22:35.090Z,46.79
2022-10-08T02:25:11.957Z,47.01
2022-10-08T02:27:50.901Z,46.95
2022-10-08T02:30:20.954Z,47.01
2022-10-08T02:32:55.800Z,46.95
2022-10-08T02:35:32.346Z,47.05
2022-10-08T02:38:06.589Z,47.03
2022-10-08T02:40:38.594Z,47.07
2022-10-08T02:43:11.370Z,46.95
2022-10-08T02:45:46.719Z,47.05
2022-10-08T02:48:20.564Z,47.00
2022-10-08T02:50:52.166Z,47.18
2022-10-08T02:53:23.545Z,46.90
2022-10-08T02:56:02.622Z,47.22
2022-10-08T02:58:32.030Z,47.29
2022-10-08T03:01:09.673Z,47.05
2022-10-08T03:03:42.579Z,47.16
2022-10-08T03:06:13.236Z,46.92
2022-10-08T03:08:46.303Z,46.97
2022-10-08T03:11:15.255Z,47.13
2022-10-08T03:13:45.955Z,46.96
2022-10-08T03:16:19.868Z,46.95
2022-10-08T03:18:48.744Z,47.04
2022-10-08T03:21:17.828Z,47.21
2022-10-08T03:23:46.532Z,46.94
2022-10-08T03:26:18.337Z,46.96
2022-10-08T03:28:46.972Z,47.05
2022-10-08T03:31:17.713Z,47.28
2022-10-08T03:33:50.481Z,47.02
2022-10-08T03:36:19.099Z,47.21
2022-10-08T03:38:47.630Z,47.09
2022-10-08T03:41:16.478Z,47.00
2022-10-08T03:43:45.475Z,47.30
2022-10-08T03:46:16.065Z,47.25
2022-10-08T03:48:50.129Z,46.87
2022-10-08T03:51:19.669Z,47.19
2022-10-08T03:53:48.221Z,47.02
2022-10-08T03:56:18.525Z,46.96
2022-10-08T03:58:47.771Z,46.88
2022-10-08T04:01:18.514Z,47.02
2022-10-08T04:03:48.678Z,46.87
2022-10-08T04:06:17.785Z,46.85
2022-10-08T04:08:46.194Z,46.95
2022-10-08T04:11:16.503Z,46.80
2022-10-08T04:13:45.519Z,47.01
2022-10-08T04:16:15.872Z,46.98
2022-10-08T04:18:45.174Z,47.08
2022-10-08T04:21:18.152Z,47.28
2022-10-08T04:23:49.365Z,47.39
2022-10-08T04:26:18.805Z,47.28
2022-10-08T04:28:48.322Z,47.24
2022-10-08T04:31:19.331Z,47.33
2022-10-08T04:33:48.439Z,47.06
2022-10-08T04:36:19.898Z,47.77
2022-10-08T04:38:48.984Z,47.36
2022-10-08T04:41:19.502Z,47.58
2022-10-08T04:43:48.159Z,47.40
2022-10-08T04:46:18.397Z,47.52
2022-10-08T04:48:48.592Z,47.56
2022-10-08T04:51:19.080Z,47.30
2022-10-08T04:53:47.762Z,47.32
2022-10-08T04:56:18.032Z,47.48
2022-10-08T04:58:46.588Z,47.24
2022-10-08T05:01:16.352Z,47.41
2022-10-08T05:03:45.901Z,47.35
2022-10-08T05:06:15.026Z,47.25
2022-10-08T05:08:44.858Z,47.39
2022-10-08T05:11:14.040Z,47.42
2022-10-08T05:13:42.394Z,47.35
2022-10-08T05:16:12.844Z,47.34
2022-10-08T05:18:42.592Z,47.18
2022-10-08T05:21:13.570Z,47.46
2022-10-08T05:23:43.827Z,47.22
2022-10-08T05:26:18.865Z,47.44
2022-10-08T05:28:48.508Z,47.23
2022-10-08T05:31:17.838Z,47.32
2022-10-08T05:33:46.476Z,46.97
2022-10-08T05:36:18.599Z,47.54
2022-10-08T05:38:47.057Z,47.43
2022-10-08T05:41:19.333Z,47.49
2022-10-08T05:43:48.499Z,47.49
2022-10-08T05:46:17.374Z,47.63
2022-10-08T05:48:46.342Z,47.39
2022-10-08T05:51:16.967Z,47.46
2022-10-08T05:53:47.865Z,47.58
2022-10-08T05:56:19.688Z,47.50
2022-10-08T05:58:49.078Z,47.86
2022-10-08T06:01:18.251Z,47.90
2022-10-08T06:03:49.892Z,47.83
2022-10-08T06:06:18.363Z,47.72
2022-10-08T06:08:47.033Z,47.80
2022-10-08T06:11:15.201Z,47.96
2022-10-08T06:13:44.858Z,47.94
2022-10-08T06:16:13.647Z,47.90
2022-10-08T06:18:42.873Z,47.82
2022-10-08T06:21:13.225Z,47.90
2022-10-08T06:23:47.398Z,48.04
2022-10-08T06:26:16.094Z,47.83
2022-10-08T06:28:46.768Z,47.97
2022-10-08T06:31:15.455Z,47.91
2022-10-08T06:33:43.709Z,47.69
2022-10-08T06:36:16.453Z,47.63
2022-10-08T06:38:45.075Z,47.71
2022-10-08T06:41:13.339Z,47.83
2022-10-08T06:43:41.648Z,47.73
2022-10-08T06:46:11.484Z,47.94
2022-10-08T06:48:39.788Z,47.77
2022-10-08T06:51:09.334Z,48.13
2022-10-08T06:53:37.561Z,48.16
2022-10-08T06:56:08.193Z,47.97
2022-10-08T06:58:36.729Z,48.08
2022-10-08T07:01:06.561Z,47.89
2022-10-08T07:03:37.571Z,47.98
2022-10-08T07:06:07.668Z,47.85
2022-10-08T07:08:37.012Z,48.00
2022-10-08T07:11:07.007Z,47.85
2022-10-08T07:13:35.767Z,48.12
2022-10-08T07:16:05.708Z,47.94
2022-10-08T07:18:36.682Z,47.91
2022-10-08T07:21:06.511Z,47.84
2022-10-08T07:23:35.101Z,47.88
2022-10-08T07:26:05.307Z,48.07
2022-10-08T07:28:36.255Z,47.95
2022-10-08T07:31:05.869Z,48.11
2022-10-08T07:33:36.138Z,47.90
2022-10-08T07:36:09.664Z,48.30
2022-10-08T07:38:39.926Z,48.24
2022-10-08T07:41:08.959Z,48.15
2022-10-08T07:43:37.379Z,48.38
2022-10-08T07:46:07.608Z,48.01
2022-10-08T07:48:37.489Z,48.35
2022-10-08T07:51:10.995Z,48.37
2022-10-08T07:53:39.778Z,48.12
2022-10-08T07:56:09.886Z,48.49
2022-10-08T07:58:38.619Z,48.26
2022-10-08T08:01:09.430Z,48.49
2022-10-08T08:03:39.576Z,48.45
2022-10-08T08:06:10.657Z,48.41
2022-10-08T08:08:40.227Z,48.41
2022-10-08T08:11:10.060Z,48.75
2022-10-08T08:13:39.722Z,48.22
2022-10-08T08:16:10.621Z,47.88
2022-10-08T08:18:42.311Z,47.98
2022-10-08T08:21:13.087Z,48.12
2022-10-08T08:23:43.485Z,48.06
2022-10-08T08:26:13.303Z,48.26
2022-10-08T08:28:42.582Z,48.50
2022-10-08T08:31:12.682Z,47.98
2022-10-08T08:33:43.962Z,48.33
2022-10-08T08:36:12.462Z,48.06
2022-10-08T08:38:41.076Z,48.31
2022-10-08T08:41:24.051Z,48.19
2022-10-08T08:43:59.734Z,48.24
2022-10-08T08:46:30.500Z,48.21
2022-10-08T08:49:05.158Z,48.04
2022-10-08T08:51:34.837Z,48.39
2022-10-08T08:54:04.101Z,48.03
2022-10-08T08:56:34.217Z,47.95
2022-10-08T08:59:06.786Z,47.92
2022-10-08T09:01:38.701Z,48.04
2022-10-08T09:04:22.809Z,48.03
2022-10-08T09:06:53.713Z,48.40
2022-10-08T09:09:28.464Z,48.41
2022-10-08T09:11:57.269Z,48.59
2022-10-08T09:14:35.979Z,48.28
2022-10-08T09:17:15.078Z,48.33
2022-10-08T09:19:45.740Z,48.12
2022-10-08T09:22:23.397Z,48.27
2022-10-08T09:24:55.748Z,48.18
2022-10-08T09:27:24.404Z,48.32
2022-10-08T09:29:52.641Z,48.30
2022-10-08T09:32:22.952Z,48.33
2022-10-08T09:34:57.042Z,48.44
2022-10-08T09:37:26.919Z,48.37
2022-10-08T09:40:22.635Z,48.31
2022-10-08T09:43:13.882Z,48.61
2022-10-08T09:45:44.953Z,48.42
2022-10-08T09:48:19.130Z,48.46
2022-10-08T09:50:59.338Z,48.37
2022-10-08T09:53:31.383Z,48.32
2022-10-08T09:56:01.754Z,47.83
2022-10-08T09:58:33.524Z,48.50
2022-10-08T10:01:05.383Z,48.14
2022-10-08T10:03:36.087Z,48.10
2022-10-08T10:06:06.144Z,47.78
2022-10-08T10:08:46.730Z,48.46
2022-10-08T10:11:20.327Z,48.44
2022-10-08T10:13:51.454Z,48.26
2022-10-08T10:16:25.101Z,48.46
2022-10-08T10:18:58.953Z,48.53
2022-10-08T10:21:38.080Z,48.36
2022-10-08T10:24:29.274Z,48.60
2022-10-08T10:27:02.296Z,48.42
2022-10-08T10:29:40.534Z,48.42
2022-10-08T10:32:15.032Z,48.25
2022-10-08T10:34:51.313Z,48.14
2022-10-08T10:37:31.749Z,48.35
2022-10-08T10:40:07.941Z,48.51
2022-10-08T10:42:40.846Z,48.17
2022-10-08T10:45:19.509Z,48.37
2022-10-08T10:47:49.214Z,48.47
2022-10-08T10:50:24.413Z,48.10
2022-10-08T10:53:03.259Z,48.24
2022-10-08T10:55:36.864Z,48.23
2022-10-08T10:58:22.158Z,48.50
2022-10-08T11:01:01.437Z,48.46
2022-10-08T11:03:39.702Z,48.46
2022-10-08T11:06:26.423Z,48.37
2022-10-08T11:09:01.998Z,48.38
2022-10-08T11:11:36.293Z,48.32
2022-10-08T11:14:18.325Z,48.40
2022-10-08T11:16:59.442Z,48.40
2022-10-08T11:19:40.978Z,48.56
2022-10-08T11:22:15.550Z,48.53
2022-10-08T11:25:16.940Z,48.64
2022-10-08T11:27:58.273Z,48.66
2022-10-08T11:30:39.697Z,48.88
2022-10-08T11:33:14.679Z,48.91
2022-10-08T11:35:51.130Z,48.71
2022-10-08T11:38:26.723Z,48.68
2022-10-08T11:41:02.368Z,49.04
2022-10-08T11:43:36.298Z,48.71
2022-10-08T11:46:22.502Z,48.74
2022-10-08T11:48:51.901Z,48.86
2022-10-08T11:51:38.904Z,48.78
2022-10-08T11:54:26.370Z,48.67
2022-10-08T11:57:19.215Z,49.02
2022-10-08T11:59:50.027Z,48.61
2022-10-08T12:02:28.159Z,49.00
2022-10-08T12:04:58.721Z,48.93
2022-10-08T12:07:34.474Z,48.78
2022-10-08T12:10:25.774Z,48.82
2022-10-08T12:13:29.983Z,48.50
2022-10-08T12:16:05.220Z,48.40
2022-10-08T12:18:44.804Z,48.42
2022-10-08T12:21:50.128Z,48.56
2022-10-08T12:24:55.624Z,48.44
2022-10-08T12:27:32.543Z,48.22
2022-10-08T12:30:03.922Z,48.45
2022-10-08T12:32:52.105Z,48.63
2022-10-08T12:35:27.277Z,48.66
2022-10-08T12:38:10.925Z,48.50
2022-10-08T12:40:43.649Z,48.68
2022-10-08T12:43:26.267Z,48.34
2022-10-08T12:46:02.720Z,48.27
2022-10-08T12:48:40.689Z,48.24
2022-10-08T12:51:20.030Z,48.07
2022-10-08T12:53:49.296Z,47.97
2022-10-08T12:56:24.721Z,47.75
2022-10-08T12:58:54.069Z,47.91
2022-10-08T13:01:23.233Z,47.96
2022-10-08T13:04:18.961Z,47.70
2022-10-08T13:06:47.792Z,47.47
2022-10-08T13:09:28.362Z,47.56
2022-10-08T13:12:03.212Z,47.50
2022-10-08T13:14:33.490Z,47.72
2022-10-08T13:17:02.185Z,47.59
2022-10-08T13:19:34.118Z,47.66
2022-10-08T13:22:05.365Z,47.57
2022-10-08T13:24:40.143Z,47.37
2022-10-08T13:27:23.482Z,47.44
2022-10-08T13:29:52.201Z,47.36
2022-10-08T13:32:23.322Z,47.46
2022-10-08T13:34:55.340Z,47.29
2022-10-08T13:37:30.397Z,47.31
2022-10-08T13:40:01.143Z,47.28
2022-10-08T13:42:32.982Z,47.18
2022-10-08T13:45:02.953Z,47.53
2022-10-08T13:47:33.453Z,47.44
2022-10-08T13:50:03.380Z,47.24
2022-10-08T13:52:35.201Z,47.15
2022-10-08T13:55:07.826Z,47.23
2022-10-08T13:57:36.153Z,47.48
2022-10-08T14:00:06.186Z,47.02
2022-10-08T14:02:34.431Z,47.18
2022-10-08T14:05:04.038Z,47.11
2022-10-08T14:07:36.341Z,47.05
2022-10-08T14:10:05.429Z,47.32
2022-10-08T14:12:36.122Z,47.45
2022-10-08T14:15:04.606Z,47.43
2022-10-08T14:17:33.349Z,47.36
2022-10-08T14:20:01.512Z,47.14
2022-10-08T14:22:32.387Z,47.09
2022-10-08T14:25:00.564Z,47.19
2022-10-08T14:27:28.764Z,47.07
2022-10-08T14:29:57.116Z,47.10
2022-10-08T14:32:25.275Z,47.29
2022-10-08T14:34:53.480Z,47.18
2022-10-08T14:37:21.793Z,47.52
2022-10-08T14:39:51.435Z,47.04
2022-10-08T14:42:19.644Z,47.05
2022-10-08T14:44:48.196Z,46.91
2022-10-08T14:47:16.597Z,47.00
2022-10-08T14:49:44.932Z,47.04
2022-10-08T14:52:13.219Z,46.94
2022-10-08T14:54:41.626Z,46.88
2022-10-08T14:57:11.238Z,46.94
2022-10-08T14:59:40.364Z,46.83
2022-10-08T15:02:11.007Z,46.79
2022-10-08T15:04:39.576Z,46.89
2022-10-08T15:07:07.884Z,46.78
2022-10-08T15:09:37.313Z,46.91
2022-10-08T15:12:05.355Z,47.08
2022-10-08T15:14:38.205Z,47.08
2022-10-08T15:17:06.984Z,47.14
2022-10-08T15:19:35.210Z,46.91
2022-10-08T15:22:03.494Z,46.80
2022-10-08T15:24:31.740Z,46.71
2022-10-08T15:26:59.940Z,46.79
2022-10-08T15:29:28.182Z,46.86
2022-10-08T15:31:57.805Z,46.74
2022-10-08T15:34:26.064Z,46.96
2022-10-08T15:36:56.091Z,47.30
2022-10-08T15:39:24.547Z,47.02
2022-10-08T15:41:53.799Z,47.04
2022-10-08T15:44:23.913Z,47.36
2022-10-08T15:46:59.891Z,47.47
2022-10-08T15:49:31.431Z,47.39
2022-10-08T15:52:00.608Z,47.69
2022-10-08T15:54:29.148Z,47.43
2022-10-08T15:56:57.605Z,47.63
2022-10-08T15:59:25.955Z,47.51
2022-10-08T16:01:54.465Z,47.85
2022-10-08T16:04:24.261Z,47.81
2022-10-08T16:06:52.987Z,47.65
2022-10-08T16:09:23.245Z,47.86
2022-10-08T16:11:52.062Z,47.91
2022-10-08T16:14:21.905Z,47.73
2022-10-08T16:16:50.687Z,47.53
2022-10-08T16:19:21.974Z,48.06
2022-10-08T16:21:53.139Z,48.05
2022-10-08T16:24:22.055Z,47.92
2022-10-08T16:26:50.573Z,47.80
2022-10-08T16:29:19.652Z,47.84
2022-10-08T16:31:48.960Z,47.74
2022-10-08T16:34:19.059Z,47.74
2022-10-08T16:36:48.568Z,47.79
2022-10-08T16:39:20.964Z,47.79
2022-10-08T16:41:50.158Z,48.00
2022-10-08T16:44:20.723Z,47.86
2022-10-08T16:46:51.737Z,48.01
2022-10-08T16:49:25.387Z,47.82
2022-10-08T16:51:55.005Z,47.92
2022-10-08T16:54:24.812Z,47.75
2022-10-08T16:56:53.046Z,47.72
2022-10-08T16:59:23.400Z,47.99
2022-10-08T17:01:53.860Z,47.78
2022-10-08T17:04:23.662Z,47.72
2022-10-08T17:06:52.338Z,47.76
2022-10-08T17:09:21.294Z,47.70
2022-10-08T17:11:51.352Z,48.03
2022-10-08T17:14:19.870Z,47.76
2022-10-08T17:16:50.396Z,47.88
2022-10-08T17:19:20.423Z,47.88
2022-10-08T17:21:48.726Z,47.77
2022-10-08T17:24:17.054Z,47.77
2022-10-08T17:26:45.326Z,47.77
2022-10-08T17:29:16.243Z,48.05
2022-10-08T17:31:44.603Z,48.04
2022-10-08T17:34:13.180Z,47.93
2022-10-08T17:36:44.099Z,48.42
2022-10-08T17:39:14.294Z,47.94
2022-10-08T17:41:44.484Z,48.08
2022-10-08T17:44:14.737Z,47.87
2022-10-08T17:46:46.119Z,47.89
2022-10-08T17:49:15.133Z,47.98
2022-10-08T17:51:43.694Z,48.07
2022-10-08T17:54:14.285Z,47.91
2022-10-08T17:56:42.641Z,47.76
2022-10-08T17:59:14.772Z,47.92
2022-10-08T18:01:45.291Z,48.02
2022-10-08T18:04:15.894Z,47.84
2022-10-08T18:06:46.216Z,47.91
2022-10-08T18:09:16.236Z,47.69
2022-10-08T18:11:46.722Z,47.70
2022-10-08T18:14:17.503Z,48.15
2022-10-08T18:16:48.426Z,47.75
2022-10-08T18:19:18.205Z,48.00
2022-10-08T18:21:46.809Z,48.18
2022-10-08T18:24:15.822Z,47.04
2022-10-08T18:26:44.679Z,47.56
2022-10-08T18:29:14.967Z,47.65
2022-10-08T18:31:46.647Z,47.52
2022-10-08T18:34:17.153Z,47.71
2022-10-08T18:36:46.789Z,47.72
2022-10-08T18:39:15.676Z,47.90
2022-10-08T18:41:45.405Z,47.91
2022-10-08T18:44:16.306Z,47.64
2022-10-08T18:46:46.214Z,47.76
2022-10-08T18:49:16.849Z,47.78
2022-10-08T18:51:45.366Z,47.86
2022-10-08T18:54:14.252Z,48.21
2022-10-08T18:56:42.635Z,48.19
2022-10-08T18:59:14.921Z,48.12
2022-10-08T19:01:46.769Z,48.04
2022-10-08T19:04:16.933Z,48.05
2022-10-08T19:06:46.928Z,48.35
2022-10-08T19:09:16.245Z,48.60
2022-10-08T19:11:47.631Z,48.41
2022-10-08T19:14:17.709Z,48.04
2022-10-08T19:16:47.747Z,47.86
2022-10-08T19:19:17.691Z,47.95
2022-10-08T19:21:46.825Z,48.44
2022-10-08T19:24:18.533Z,48.23
2022-10-08T19:26:48.125Z,47.94
2022-10-08T19:29:17.254Z,48.08
2022-10-08T19:31:48.654Z,48.12
2022-10-08T19:34:18.233Z,48.05
2022-10-08T19:36:47.204Z,48.05
2022-10-08T19:39:17.530Z,48.12
2022-10-08T19:41:46.672Z,48.22
2022-10-08T19:44:16.681Z,48.11
2022-10-08T19:46:44.994Z,48.59
2022-10-08T19:49:14.923Z,48.00
2022-10-08T19:51:43.776Z,48.13
2022-10-08T19:54:12.278Z,47.85
2022-10-08T19:56:40.857Z,48.03
2022-10-08T19:59:11.257Z,47.78
2022-10-08T20:01:41.126Z,47.67
2022-10-08T20:04:10.676Z,47.41
2022-10-08T20:06:41.543Z,47.86
2022-10-08T20:09:12.130Z,47.73
2022-10-08T20:11:41.386Z,47.75
2022-10-08T20:14:09.817Z,47.78
2022-10-08T20:16:40.533Z,47.99
2022-10-08T20:19:14.273Z,47.97
2022-10-08T20:21:44.085Z,47.70
2022-10-08T20:24:12.727Z,47.93
2022-10-08T20:26:42.634Z,47.66
2022-10-08T20:29:12.595Z,47.44
2022-10-08T20:31:42.873Z,47.53
2022-10-08T20:34:13.912Z,47.41
2022-10-08T20:36:43.530Z,47.55
2022-10-08T20:39:12.151Z,47.61
2022-10-08T20:41:40.636Z,47.55
2022-10-08T20:44:09.423Z,47.25
2022-10-08T20:46:38.908Z,47.55
2022-10-08T20:49:07.647Z,47.40
2022-10-08T20:51:35.963Z,47.31
2022-10-08T20:54:07.246Z,47.45
2022-10-08T20:56:40.057Z,47.37
2022-10-08T20:59:08.806Z,47.27
2022-10-08T21:01:38.931Z,47.21
2022-10-08T21:04:08.355Z,47.11
2022-10-08T21:06:38.322Z,47.49
2022-10-08T21:09:08.764Z,47.49
2022-10-08T21:11:37.626Z,47.19
2022-10-08T21:14:07.322Z,47.40
2022-10-08T21:16:38.128Z,47.07
2022-10-08T21:19:08.441Z,47.41
2022-10-08T21:21:36.728Z,47.19
2022-10-08T21:24:05.458Z,47.32
2022-10-08T21:26:38.103Z,47.27
2022-10-08T21:29:08.473Z,47.51
2022-10-08T21:31:38.732Z,47.33
2022-10-08T21:34:07.375Z,47.33
2022-10-08T21:36:38.066Z,47.30
2022-10-08T21:39:07.908Z,47.19
2022-10-08T21:41:38.708Z,47.04
2022-10-08T21:44:08.802Z,47.04
2022-10-08T21:46:39.374Z,47.23
2022-10-08T21:49:11.650Z,47.22
2022-10-08T21:51:39.901Z,47.19
2022-10-08T21:54:08.373Z,47.14
2022-10-08T21:56:39.586Z,47.03
2022-10-08T21:59:10.117Z,47.11
2022-10-08T22:01:40.116Z,46.96
2022-10-08T22:04:10.807Z,46.95
2022-10-08T22:06:41.201Z,47.17
2022-10-08T22:09:12.554Z,47.03
2022-10-08T22:11:42.509Z,47.00
2022-10-08T22:14:10.916Z,47.21
2022-10-08T22:16:39.466Z,46.76
2022-10-08T22:19:07.851Z,47.02
2022-10-08T22:21:36.231Z,46.98
2022-10-08T22:24:05.231Z,46.90
2022-10-08T22:26:35.322Z,46.98
2022-10-08T22:29:06.281Z,47.06
2022-10-08T22:31:35.064Z,46.77
2022-10-08T22:34:03.408Z,47.13
2022-10-08T22:36:33.951Z,47.01
2022-10-08T22:39:02.223Z,46.75
2022-10-08T22:41:32.867Z,46.94
2022-10-08T22:44:02.821Z,47.03
2022-10-08T22:46:36.288Z,47.09
2022-10-08T22:49:06.625Z,46.82
2022-10-08T22:51:35.187Z,46.58
2022-10-08T22:54:03.529Z,47.04
2022-10-08T22:56:33.031Z,46.86
2022-10-08T22:59:01.708Z,47.00
2022-10-08T23:01:31.050Z,47.17
2022-10-08T23:04:00.530Z,47.22
2022-10-08T23:06:29.243Z,47.16
2022-10-08T23:08:58.665Z,47.69
2022-10-08T23:11:26.824Z,46.98
2022-10-08T23:13:56.934Z,46.92
2022-10-08T23:16:26.544Z,46.96
2022-10-08T23:18:57.222Z,46.90
2022-10-08T23:21:27.358Z,47.13
2022-10-08T23:23:56.362Z,46.77
2022-10-08T23:26:25.697Z,46.94
2022-10-08T23:28:55.673Z,46.68
2022-10-08T23:31:25.547Z,46.83
2022-10-08T23:33:54.845Z,46.71
2022-10-08T23:36:25.432Z,46.96
2022-10-08T23:38:56.612Z,46.55
2022-10-08T23:41:25.579Z,46.72
2022-10-08T23:43:55.210Z,46.82
2022-10-08T23:46:25.523Z,46.46
2022-10-08T23:48:54.705Z,46.80
2022-10-08T23:51:23.809Z,46.55
2022-10-08T23:53:53.059Z,46.41
2022-10-08T23:56:22.983Z,46.30
2022-10-08T23:58:51.234Z,46.56
